createdAt,value
2022-10-19T00:01:02.991Z,5.55
2022-10-19T00:03:30.846Z,4.68
2022-10-19T00:05:58.751Z,4.23
2022-10-19T00:08:27.850Z,4.80
2022-10-19T00:10:55.542Z,8.40
2022-10-19T00:13:23.254Z,4.28
2022-10-19T00:15:50.951Z,7.88
2022-10-19T00:18:18.623Z,9.83
2022-10-19T00:20:46.397Z,5.65
2022-10-19T00:23:14.163Z,5.85
2022-10-19T00:25:43.241Z,3.63
2022-10-19T00:28:11.044Z,4.68
2022-10-19T00:30:38.870Z,3.97
2022-10-19T00:33:06.572Z,4.00
2022-10-19T00:35:34.271Z,2.95
2022-10-19T00:38:02.108Z,5.10
2022-10-19T00:40:29.784Z,6.15
2022-10-19T00:42:58.850Z,5.40
2022-10-19T00:45:26.666Z,4.22
2022-10-19T00:47:54.390Z,5.20
2022-10-19T00:50:22.570Z,4.30
2022-10-19T00:52:50.546Z,5.50
2022-10-19T00:55:18.316Z,9.93
2022-10-19T00:57:46.083Z,4.15
2022-10-19T01:00:15.600Z,3.13
2022-10-19T01:02:43.347Z,3.80
2022-10-19T01:05:12.374Z,4.18
2022-10-19T01:07:40.233Z,4.50
2022-10-19T01:10:09.673Z,6.35
2022-10-19T01:13:05.958Z,6.18
2022-10-19T01:15:42.860Z,5.32
2022-10-19T01:18:17.793Z,7.38
2022-10-19T01:21:20.761Z,5.83
2022-10-19T01:24:12.371Z,5.53
2022-10-19T01:27:00.285Z,5.50
2022-10-19T01:29:45.986Z,5.88
2022-10-19T01:32:23.488Z,3.25
2022-10-19T01:34:59.876Z,6.80
2022-10-19T01:37:37.057Z,8.23
2022-10-19T01:40:10.121Z,4.15
2022-10-19T01:42:46.239Z,7.15
2022-10-19T01:45:18.707Z,6.72
2022-10-19T01:47:54.431Z,6.33
2022-10-19T01:50:28.713Z,7.20
2022-10-19T01:52:57.988Z,6.63
2022-10-19T01:55:28.281Z,5.82
2022-10-19T01:58:00.362Z,5.05
2022-10-19T02:00:30.625Z,5.30
2022-10-19T02:03:01.603Z,6.85
2022-10-19T02:05:32.824Z,4.60
2022-10-19T02:08:05.039Z,6.97
2022-10-19T02:10:36.296Z,8.25
2022-10-19T02:13:04.597Z,6.07
2022-10-19T02:15:37.353Z,5.43
2022-10-19T02:18:08.133Z,6.80
2022-10-19T02:20:37.416Z,7.65
2022-10-19T02:23:05.917Z,5.88
2022-10-19T02:25:34.034Z,5.83
2022-10-19T02:28:03.651Z,6.70
2022-10-19T02:30:31.479Z,4.55
2022-10-19T02:32:59.174Z,11.90
2022-10-19T02:35:28.822Z,4.80
2022-10-19T02:38:00.553Z,6.47
2022-10-19T02:40:30.748Z,5.85
2022-10-19T02:43:05.117Z,10.25
2022-10-19T02:45:36.671Z,6.43
2022-10-19T02:48:07.255Z,6.18
2022-10-19T02:50:36.574Z,6.87
2022-10-19T02:53:04.755Z,7.22
2022-10-19T02:55:32.641Z,6.82
2022-10-19T02:58:00.370Z,6.68
2022-10-19T03:00:28.081Z,8.35
2022-10-19T03:02:55.766Z,6.60
2022-10-19T03:05:23.449Z,6.40
2022-10-19T03:07:52.473Z,9.73
2022-10-19T03:10:20.133Z,8.38
2022-10-19T03:12:47.821Z,8.13
2022-10-19T03:15:16.977Z,6.30
2022-10-19T03:17:44.654Z,9.23
2022-10-19T03:20:12.811Z,6.43
2022-10-19T03:22:40.525Z,7.25
2022-10-19T03:25:10.313Z,3.58
2022-10-19T03:27:37.990Z,6.23
2022-10-19T03:30:06.275Z,9.43
2022-10-19T03:32:33.960Z,8.38
2022-10-19T03:35:01.635Z,8.63
2022-10-19T03:37:29.267Z,7.88
2022-10-19T03:39:56.942Z,5.77
2022-10-19T03:42:25.986Z,9.35
2022-10-19T03:44:53.689Z,6.93
2022-10-19T03:47:21.390Z,5.38
2022-10-19T03:49:50.390Z,7.45
2022-10-19T03:52:18.926Z,7.23
2022-10-19T03:54:47.230Z,8.98
2022-10-19T03:57:14.901Z,6.07
2022-10-19T03:59:43.929Z,4.65
2022-10-19T04:02:11.592Z,6.38
2022-10-19T04:04:39.438Z,4.83
2022-10-19T04:07:07.188Z,5.40
2022-10-19T04:09:34.867Z,8.02
2022-10-19T04:12:02.578Z,7.68
2022-10-19T04:14:32.445Z,10.45
2022-10-19T04:17:02.807Z,6.00
2022-10-19T04:19:30.678Z,4.28
2022-10-19T04:21:58.893Z,5.32
2022-10-19T04:24:26.686Z,3.83
2022-10-19T04:26:56.086Z,4.25
2022-10-19T04:29:29.474Z,3.43
2022-10-19T04:31:57.917Z,8.27
2022-10-19T04:34:26.996Z,7.00
2022-10-19T04:36:54.918Z,5.88
2022-10-19T04:39:22.628Z,7.57
2022-10-19T04:41:50.347Z,10.20
2022-10-19T04:44:18.080Z,7.43
2022-10-19T04:46:45.771Z,4.60
2022-10-19T04:49:16.454Z,3.58
2022-10-19T04:51:48.478Z,7.60
2022-10-19T04:54:16.211Z,4.47
2022-10-19T04:56:43.879Z,6.60
2022-10-19T04:59:14.496Z,3.95
2022-10-19T05:01:46.328Z,4.35
2022-10-19T05:04:15.154Z,5.57
2022-10-19T05:06:45.837Z,5.03
2022-10-19T05:09:14.944Z,3.55
2022-10-19T05:11:42.650Z,7.72
2022-10-19T05:14:10.363Z,6.00
2022-10-19T05:16:41.025Z,4.07
2022-10-19T05:19:08.723Z,5.10
2022-10-19T05:21:36.442Z,4.20
2022-10-19T05:24:04.187Z,4.57
2022-10-19T05:26:33.229Z,4.20
2022-10-19T05:29:04.360Z,5.05
2022-10-19T05:31:33.908Z,4.53
2022-10-19T05:34:03.133Z,6.15
2022-10-19T05:36:34.796Z,5.20
2022-10-19T05:39:06.443Z,7.00
2022-10-19T05:41:36.088Z,4.05
2022-10-19T05:44:05.178Z,8.17
2022-10-19T05:46:34.313Z,4.45
2022-10-19T05:49:02.303Z,7.97
2022-10-19T05:51:30.078Z,3.70
2022-10-19T05:53:58.113Z,6.28
2022-10-19T05:56:27.314Z,4.23
2022-10-19T05:58:56.743Z,9.57
2022-10-19T06:01:24.508Z,4.05
2022-10-19T06:03:53.869Z,3.95
2022-10-19T06:06:22.259Z,3.92
2022-10-19T06:08:50.821Z,3.33
2022-10-19T06:11:20.584Z,4.18
2022-10-19T06:13:50.512Z,4.47
2022-10-19T06:16:20.574Z,6.03
2022-10-19T06:18:48.427Z,4.28
2022-10-19T06:21:18.602Z,6.50
2022-10-19T06:23:46.685Z,4.78
2022-10-19T06:26:15.565Z,4.35
2022-10-19T06:28:44.840Z,5.97
2022-10-19T06:31:13.416Z,4.65
2022-10-19T06:33:48.656Z,4.17
2022-10-19T06:36:19.603Z,8.52
2022-10-19T06:38:47.815Z,4.18
2022-10-19T06:41:15.847Z,6.00
2022-10-19T06:43:44.379Z,5.28
2022-10-19T06:46:14.866Z,5.53
2022-10-19T06:48:44.032Z,4.50
2022-10-19T06:51:13.568Z,6.85
2022-10-19T06:53:41.285Z,4.82
2022-10-19T06:56:09.530Z,7.90
2022-10-19T06:58:37.700Z,4.03
2022-10-19T07:01:08.016Z,5.80
2022-10-19T07:03:37.438Z,4.00
2022-10-19T07:06:08.375Z,5.18
2022-10-19T07:08:37.666Z,6.18
2022-10-19T07:11:07.633Z,7.47
2022-10-19T07:13:35.864Z,5.68
2022-10-19T07:16:06.825Z,6.38
2022-10-19T07:18:34.810Z,8.90
2022-10-19T07:21:03.825Z,5.93
2022-10-19T07:23:34.622Z,5.83
2022-10-19T07:26:06.190Z,5.38
2022-10-19T07:28:34.307Z,4.00
2022-10-19T07:31:06.767Z,7.38
2022-10-19T07:33:34.675Z,3.10
2022-10-19T07:36:03.375Z,5.07
2022-10-19T07:38:33.883Z,4.97
2022-10-19T07:41:03.229Z,3.78
2022-10-19T07:43:31.091Z,4.35
2022-10-19T07:46:00.177Z,4.45
2022-10-19T07:48:27.832Z,4.70
2022-10-19T07:50:55.741Z,3.17
2022-10-19T07:53:24.065Z,3.40
2022-10-19T07:55:53.093Z,4.78
2022-10-19T07:58:20.821Z,3.67
2022-10-19T08:00:48.654Z,4.33
2022-10-19T08:04:13.649Z,5.25
2022-10-19T08:06:06.589Z,3.67
2022-10-19T08:08:34.561Z,4.68
2022-10-19T08:11:09.408Z,3.35
2022-10-19T08:13:37.374Z,4.07
2022-10-19T08:16:05.405Z,2.90
2022-10-19T08:18:33.800Z,3.10
2022-10-19T08:21:03.329Z,3.38
2022-10-19T08:23:31.019Z,3.65
2022-10-19T08:25:59.368Z,3.13
2022-10-19T08:28:28.497Z,4.05
2022-10-19T08:30:58.949Z,4.00
2022-10-19T08:33:27.547Z,5.78
2022-10-19T08:35:55.240Z,3.72
2022-10-19T08:38:22.963Z,3.43
2022-10-19T08:40:50.687Z,3.70
2022-10-19T08:43:28.628Z,4.35
2022-10-19T08:46:07.993Z,4.15
2022-10-19T08:48:39.274Z,3.20
2022-10-19T08:51:09.373Z,3.80
2022-10-19T08:53:44.880Z,4.32
2022-10-19T08:56:45.783Z,3.63
2022-10-19T08:59:17.543Z,3.90
2022-10-19T09:01:53.132Z,3.60
2022-10-19T09:04:24.837Z,6.03
2022-10-19T09:07:17.652Z,3.85
2022-10-19T09:09:51.354Z,4.28
2022-10-19T09:12:25.834Z,4.78
2022-10-19T09:14:58.907Z,3.58
2022-10-19T09:17:29.068Z,3.13
2022-10-19T09:19:57.728Z,3.90
2022-10-19T09:22:30.588Z,4.03
2022-10-19T09:25:02.211Z,3.00
2022-10-19T09:27:36.574Z,3.63
2022-10-19T09:30:07.069Z,5.37
2022-10-19T09:32:38.591Z,3.38
2022-10-19T09:35:18.839Z,3.13
2022-10-19T09:37:49.492Z,3.50
2022-10-19T09:40:20.584Z,3.40
2022-10-19T09:42:52.917Z,7.33
2022-10-19T09:45:32.934Z,2.83
2022-10-19T09:48:07.095Z,3.35
2022-10-19T09:50:44.549Z,3.00
2022-10-19T09:53:20.093Z,4.15
2022-10-19T09:55:52.502Z,3.50
2022-10-19T09:58:21.888Z,3.60
2022-10-19T10:00:51.662Z,3.25
2022-10-19T10:03:27.403Z,3.75
2022-10-19T10:05:57.767Z,3.28
2022-10-19T10:08:28.604Z,4.53
2022-10-19T10:11:03.616Z,3.23
2022-10-19T10:13:31.380Z,3.50
2022-10-19T10:16:02.415Z,3.72
2022-10-19T10:18:31.545Z,3.45
2022-10-19T10:21:06.069Z,3.03
2022-10-19T10:23:36.519Z,3.33
2022-10-19T10:26:07.103Z,3.05
2022-10-19T10:28:34.787Z,3.13
2022-10-19T10:31:05.828Z,2.67
2022-10-19T10:33:45.050Z,3.05
2022-10-19T10:36:13.513Z,3.10
2022-10-19T10:38:45.788Z,2.90
2022-10-19T10:41:17.675Z,2.70
2022-10-19T10:43:53.706Z,2.50
2022-10-19T10:46:25.555Z,2.75
2022-10-19T10:48:58.351Z,2.60
2022-10-19T10:51:34.014Z,3.03
2022-10-19T10:54:16.582Z,2.40
2022-10-19T10:56:45.478Z,2.55
2022-10-19T10:59:19.553Z,2.40
2022-10-19T11:02:03.073Z,2.90
2022-10-19T11:04:38.328Z,4.40
2022-10-19T11:07:17.140Z,2.85
2022-10-19T11:09:50.510Z,2.83
2022-10-19T11:12:25.072Z,2.40
2022-10-19T11:14:57.952Z,2.53
2022-10-19T11:17:29.271Z,3.05
2022-10-19T11:19:58.381Z,2.60
2022-10-19T11:22:30.994Z,2.70
2022-10-19T11:25:10.054Z,2.90
2022-10-19T11:27:46.099Z,2.80
2022-10-19T11:30:16.274Z,3.88
2022-10-19T11:32:56.509Z,2.80
2022-10-19T11:35:39.455Z,2.60
2022-10-19T11:38:21.826Z,3.22
2022-10-19T11:41:18.582Z,3.63
2022-10-19T11:44:05.156Z,3.00
2022-10-19T11:46:39.863Z,3.42
2022-10-19T11:49:22.300Z,2.92
2022-10-19T11:51:57.924Z,2.88
2022-10-19T11:54:45.556Z,2.70
2022-10-19T11:57:16.657Z,2.80
2022-10-19T12:00:03.650Z,2.80
2022-10-19T12:03:03.987Z,4.15
2022-10-19T12:05:36.469Z,4.55
2022-10-19T12:08:22.455Z,3.87
2022-10-19T12:10:58.423Z,3.05
2022-10-19T12:13:30.797Z,2.78
2022-10-19T12:16:01.458Z,3.80
2022-10-19T12:18:35.111Z,3.10
2022-10-19T12:21:05.797Z,3.00
2022-10-19T12:23:38.524Z,3.13
2022-10-19T12:26:09.773Z,3.38
2022-10-19T12:28:41.682Z,3.00
2022-10-19T12:31:11.798Z,2.70
2022-10-19T12:33:47.347Z,3.00
2022-10-19T12:36:28.017Z,2.83
2022-10-19T12:39:03.480Z,2.90
2022-10-19T12:41:37.623Z,3.03
2022-10-19T12:47:01.553Z,3.10
2022-10-19T12:49:38.481Z,4.45
2022-10-19T12:52:08.255Z,2.90
2022-10-19T12:54:40.693Z,3.50
2022-10-19T12:57:24.518Z,2.95
2022-10-19T13:00:02.498Z,3.00
2022-10-19T13:05:07.259Z,2.90
2022-10-19T13:07:37.106Z,3.67
2022-10-19T13:10:09.654Z,3.00
2022-10-19T13:12:46.766Z,2.80
2022-10-19T13:15:57.480Z,2.88
2022-10-19T13:19:08.320Z,3.00
2022-10-19T13:22:07.160Z,2.92
2022-10-19T13:24:37.529Z,3.88
2022-10-19T13:27:40.225Z,2.70
2022-10-19T13:30:48.210Z,2.67
2022-10-19T13:33:48.135Z,2.60
2022-10-19T13:36:16.304Z,2.40
2022-10-19T13:38:45.594Z,2.60
2022-10-19T13:41:16.947Z,2.50
2022-10-19T13:43:56.307Z,2.83
2022-10-19T13:46:41.053Z,2.90
2022-10-19T13:49:32.609Z,3.58
2022-10-19T13:52:16.411Z,3.55
2022-10-19T13:55:05.613Z,2.70
2022-10-19T13:57:53.144Z,2.50
2022-10-19T14:00:24.712Z,3.17
2022-10-19T14:03:01.751Z,2.50
2022-10-19T14:05:55.574Z,2.70
2022-10-19T14:09:01.047Z,2.60
2022-10-19T14:11:33.478Z,2.92
2022-10-19T14:14:20.397Z,3.08
2022-10-19T14:16:58.293Z,2.58
2022-10-19T14:19:31.392Z,2.47
2022-10-19T14:22:01.644Z,2.70
2022-10-19T14:24:32.492Z,2.90
2022-10-19T14:27:03.013Z,2.50
2022-10-19T14:29:32.244Z,2.70
2022-10-19T14:32:01.492Z,2.50
2022-10-19T14:34:29.229Z,2.67
2022-10-19T14:36:57.206Z,2.53
2022-10-19T14:39:30.659Z,2.88
2022-10-19T14:42:04.121Z,2.40
2022-10-19T14:44:38.670Z,3.28
2022-10-19T14:47:22.309Z,2.90
2022-10-19T14:49:50.729Z,2.83
2022-10-19T14:52:24.140Z,3.10
2022-10-19T14:54:54.808Z,2.58
2022-10-19T14:57:28.216Z,2.65
2022-10-19T14:59:59.238Z,2.90
2022-10-19T15:02:32.680Z,3.83
2022-10-19T15:05:02.794Z,3.38
2022-10-19T15:07:36.583Z,3.00
2022-10-19T15:10:09.427Z,3.13
2022-10-19T15:12:40.205Z,2.83
2022-10-19T15:15:10.958Z,3.05
2022-10-19T15:17:51.393Z,2.80
2022-10-19T15:20:26.670Z,3.03
2022-10-19T15:22:54.777Z,3.83
2022-10-19T15:25:33.976Z,2.93
2022-10-19T15:28:19.943Z,2.90
2022-10-19T15:30:59.345Z,3.47
2022-10-19T15:33:29.545Z,2.63
2022-10-19T15:36:17.519Z,2.72
2022-10-19T15:38:47.275Z,3.33
2022-10-19T15:41:20.594Z,3.47
2022-10-19T15:43:52.529Z,3.70
2022-10-19T15:46:26.486Z,2.85
2022-10-19T15:48:56.481Z,3.33
2022-10-19T15:51:49.431Z,3.73
2022-10-19T15:54:19.454Z,3.50
2022-10-19T15:56:48.766Z,2.83
2022-10-19T15:59:18.622Z,3.40
2022-10-19T16:01:52.563Z,4.55
2022-10-19T16:04:25.045Z,2.57
2022-10-19T16:06:52.741Z,3.00
2022-10-19T16:09:22.410Z,3.00
2022-10-19T16:11:56.353Z,3.60
2022-10-19T16:14:24.304Z,3.03
2022-10-19T16:16:52.074Z,3.80
2022-10-19T16:19:19.995Z,2.95
2022-10-19T16:21:50.399Z,3.25
2022-10-19T16:24:18.364Z,3.47
2022-10-19T16:26:46.285Z,3.92
2022-10-19T16:29:13.977Z,5.50
2022-10-19T16:31:41.698Z,4.53
2022-10-19T16:34:09.382Z,3.72
2022-10-19T16:36:37.307Z,4.32
2022-10-19T16:39:06.389Z,4.53
2022-10-19T16:41:34.107Z,4.50
2022-10-19T16:44:01.879Z,5.03
2022-10-19T16:46:29.741Z,7.22
2022-10-19T16:48:57.648Z,5.68
2022-10-19T16:51:35.983Z,10.77
2022-10-19T16:54:05.427Z,10.00
2022-10-19T16:56:34.894Z,7.53
2022-10-19T16:59:04.436Z,6.53
2022-10-19T17:01:33.334Z,5.43
2022-10-19T17:04:01.710Z,7.55
2022-10-19T17:06:29.917Z,6.47
2022-10-19T17:09:37.035Z,5.40
2022-10-19T17:11:49.122Z,6.10
2022-10-19T17:14:20.104Z,5.47
2022-10-19T17:16:50.290Z,7.22
2022-10-19T17:19:21.984Z,5.20
2022-10-19T17:21:51.804Z,5.95
2022-10-19T17:24:22.706Z,6.57
2022-10-19T17:26:54.715Z,5.90
2022-10-19T17:29:24.613Z,4.95
2022-10-19T17:31:53.570Z,6.27
2022-10-19T17:34:23.157Z,4.85
2022-10-19T17:36:52.068Z,3.72
2022-10-19T17:39:27.473Z,6.85
2022-10-19T17:42:03.743Z,4.13
2022-10-19T17:44:33.377Z,3.97
2022-10-19T17:47:02.915Z,3.92
2022-10-19T17:49:32.030Z,3.47
2022-10-19T17:52:01.731Z,5.65
2022-10-19T17:54:36.256Z,3.45
2022-10-19T17:57:14.394Z,2.90
2022-10-19T17:59:52.679Z,7.95
2022-10-19T18:02:22.672Z,11.52
2022-10-19T18:04:50.480Z,20.23
2022-10-19T18:07:18.651Z,21.83
2022-10-19T18:09:46.337Z,26.10
2022-10-19T18:12:15.433Z,23.17
2022-10-19T18:14:43.250Z,23.38
2022-10-19T18:17:11.176Z,21.55
2022-10-19T18:19:38.921Z,17.60
2022-10-19T18:22:06.641Z,12.37
2022-10-19T18:24:34.793Z,12.77
2022-10-19T18:27:02.655Z,12.30
2022-10-19T18:29:31.784Z,6.75
2022-10-19T18:31:59.551Z,8.45
2022-10-19T18:34:27.925Z,8.13
2022-10-19T18:36:55.936Z,9.35
2022-10-19T18:39:24.068Z,6.80
2022-10-19T18:41:54.314Z,6.35
2022-10-19T18:44:26.344Z,7.38
2022-10-19T18:46:57.259Z,6.03
2022-10-19T18:49:26.577Z,5.10
2022-10-19T18:51:56.291Z,5.85
2022-10-19T18:54:24.594Z,8.00
2022-10-19T18:56:52.302Z,5.70
2022-10-19T18:59:20.074Z,4.60
2022-10-19T19:01:47.840Z,4.57
2022-10-19T19:04:16.994Z,4.53
2022-10-19T19:06:44.765Z,4.65
2022-10-19T19:09:13.201Z,4.43
2022-10-19T19:11:41.718Z,4.30
2022-10-19T19:14:13.244Z,4.38
2022-10-19T19:16:42.623Z,4.63
2022-10-19T19:19:12.403Z,4.82
2022-10-19T19:21:44.155Z,3.55
2022-10-19T19:24:14.167Z,5.70
2022-10-19T19:26:44.618Z,3.90
2022-10-19T19:29:12.339Z,7.57
2022-10-19T19:31:40.433Z,6.95
2022-10-19T19:34:09.386Z,4.53
2022-10-19T19:36:38.275Z,5.83
2022-10-19T19:39:07.374Z,4.88
2022-10-19T19:41:35.032Z,5.93
2022-10-19T19:44:02.765Z,4.55
2022-10-19T19:46:31.137Z,5.50
2022-10-19T19:49:01.071Z,4.10
2022-10-19T19:51:30.027Z,3.65
2022-10-19T19:53:58.305Z,3.17
2022-10-19T19:56:28.877Z,3.08
2022-10-19T19:58:58.084Z,3.08
2022-10-19T20:01:26.869Z,3.20
2022-10-19T20:03:54.814Z,2.72
2022-10-19T20:06:25.782Z,2.75
2022-10-19T20:08:54.370Z,2.97
2022-10-19T20:11:22.248Z,2.40
2022-10-19T20:13:51.752Z,3.07
2022-10-19T20:16:25.135Z,4.35
2022-10-19T20:19:00.136Z,3.15
2022-10-19T20:21:28.286Z,3.55
2022-10-19T20:23:56.007Z,3.42
2022-10-19T20:26:26.042Z,2.90
2022-10-19T20:28:55.169Z,3.15
2022-10-19T20:31:23.635Z,3.00
2022-10-19T20:33:51.439Z,3.83
2022-10-19T20:36:21.469Z,5.80
2022-10-19T20:38:50.892Z,3.10
2022-10-19T20:41:20.229Z,3.70
2022-10-19T20:43:48.007Z,2.92
2022-10-19T20:46:19.178Z,3.47
2022-10-19T20:48:47.074Z,6.57
2022-10-19T20:51:16.865Z,3.53
2022-10-19T20:53:46.345Z,3.25
2022-10-19T20:56:15.735Z,3.33
2022-10-19T20:58:44.982Z,4.22
2022-10-19T21:01:15.143Z,3.85
2022-10-19T21:03:49.108Z,2.40
2022-10-19T21:06:17.331Z,4.47
2022-10-19T21:08:45.177Z,2.70
2022-10-19T21:11:14.787Z,3.42
2022-10-19T21:13:42.750Z,3.03
2022-10-19T21:16:11.647Z,3.33
2022-10-19T21:18:39.793Z,3.30
2022-10-19T21:21:17.790Z,3.38
2022-10-19T21:23:46.767Z,5.00
2022-10-19T21:26:15.037Z,3.20
2022-10-19T21:28:48.179Z,3.00
2022-10-19T21:31:17.305Z,2.97
2022-10-19T21:33:45.699Z,3.15
2022-10-19T21:36:15.707Z,2.90
2022-10-19T21:38:43.757Z,3.80
2022-10-19T21:41:14.741Z,3.58
2022-10-19T21:43:43.240Z,3.33
2022-10-19T21:46:14.871Z,2.70
2022-10-19T21:48:43.166Z,4.97
2022-10-19T21:51:24.866Z,2.85
2022-10-19T21:53:52.587Z,2.80
2022-10-19T21:56:20.278Z,3.45
2022-10-19T21:58:48.396Z,3.33
2022-10-19T22:01:16.347Z,3.90
2022-10-19T22:03:44.211Z,3.45
2022-10-19T22:06:12.322Z,4.22
2022-10-19T22:08:45.042Z,3.13
2022-10-19T22:11:14.518Z,2.88
2022-10-19T22:13:42.598Z,3.45
2022-10-19T22:16:12.763Z,4.57
2022-10-19T22:18:40.478Z,3.20
2022-10-19T22:21:10.290Z,3.22
2022-10-19T22:23:38.311Z,3.17
2022-10-19T22:26:14.939Z,2.78
2022-10-19T22:28:43.077Z,2.70
2022-10-19T22:31:11.302Z,5.47
2022-10-19T22:33:39.672Z,3.58
2022-10-19T22:36:10.025Z,2.90
2022-10-19T22:38:38.265Z,2.55
2022-10-19T22:41:06.010Z,2.45
2022-10-19T22:43:35.158Z,2.63
2022-10-19T22:46:02.958Z,2.65
2022-10-19T22:48:30.750Z,2.88
2022-10-19T22:50:58.466Z,2.50
2022-10-19T22:53:26.326Z,2.67
2022-10-19T22:55:54.124Z,2.60
2022-10-19T22:58:21.825Z,2.53
2022-10-19T23:01:01.607Z,3.50
2022-10-19T23:03:29.302Z,2.90
2022-10-19T23:05:57.040Z,4.47
2022-10-19T23:08:24.962Z,2.70
2022-10-19T23:10:52.827Z,2.58
2022-10-19T23:13:20.570Z,2.45
2022-10-19T23:15:48.473Z,2.42
2022-10-19T23:18:17.695Z,2.85
2022-10-19T23:20:53.888Z,3.00
2022-10-19T23:23:21.736Z,3.60
2022-10-19T23:25:58.844Z,2.80
2022-10-19T23:28:26.616Z,2.42
2022-10-19T23:30:56.125Z,2.70
2022-10-19T23:33:25.795Z,3.70
2022-10-19T23:35:53.602Z,2.65
2022-10-19T23:38:21.290Z,4.20
2022-10-19T23:40:49.011Z,3.05
2022-10-19T23:43:16.702Z,2.67
2022-10-19T23:45:46.485Z,4.10
2022-10-19T23:48:14.163Z,2.90
2022-10-19T23:50:43.277Z,3.55
2022-10-19T23:53:10.961Z,3.08
2022-10-19T23:55:38.684Z,3.55
2022-10-19T23:58:06.409Z,3.20
